sensor_id;sensor_type;location;lat;lon;timestamp;P1;durP1;ratioP1;P2;durP2;ratioP2
1569;SDS011;778;50.120;8.698;2022-08-21T00:02:20;7.50;;;6.63;;
1569;SDS011;778;50.120;8.698;2022-08-21T00:04:52;9.67;;;6.10;;
1569;SDS011;778;50.120;8.698;2022-08-21T00:07:23;6.30;;;5.73;;
1569;SDS011;778;50.120;8.698;2022-08-21T00:09:53;8.87;;;6.40;;
1569;SDS011;778;50.120;8.698;2022-08-21T00:12:23;8.67;;;7.80;;
1569;SDS011;778;50.120;8.698;2022-08-21T00:14:52;11.20;;;7.30;;
1569;SDS011;778;50.120;8.698;2022-08-21T00:17:23;8.77;;;7.77;;
1569;SDS011;778;50.120;8.698;2022-08-21T00:19:51;10.33;;;7.53;;
1569;SDS011;778;50.120;8.698;2022-08-21T00:22:20;8.77;;;7.90;;
1569;SDS011;778;50.120;8.698;2022-08-21T00:24:48;10.70;;;7.40;;
1569;SDS011;778;50.120;8.698;2022-08-21T00:27:17;9.07;;;7.23;;
1569;SDS011;778;50.120;8.698;2022-08-21T00:29:47;9.60;;;6.70;;
1569;SDS011;778;50.120;8.698;2022-08-21T00:32:19;8.80;;;7.90;;
1569;SDS011;778;50.120;8.698;2022-08-21T00:34:48;10.90;;;7.60;;
1569;SDS011;778;50.120;8.698;2022-08-21T00:37:17;10.53;;;7.03;;
1569;SDS011;778;50.120;8.698;2022-08-21T00:39:46;7.87;;;7.03;;
1569;SDS011;778;50.120;8.698;2022-08-21T00:42:15;8.10;;;7.27;;
1569;SDS011;778;50.120;8.698;2022-08-21T00:44:48;9.37;;;7.20;;
1569;SDS011;778;50.120;8.698;2022-08-21T00:47:18;10.80;;;7.97;;
1569;SDS011;778;50.120;8.698;2022-08-21T00:49:47;7.87;;;6.97;;
1569;SDS011;778;50.120;8.698;2022-08-21T00:52:17;8.17;;;7.33;;
1569;SDS011;778;50.120;8.698;2022-08-21T00:54:50;8.07;;;7.27;;
1569;SDS011;778;50.120;8.698;2022-08-21T00:57:26;10.53;;;7.33;;
1569;SDS011;778;50.120;8.698;2022-08-21T01:00:01;11.97;;;7.87;;
1569;SDS011;778;50.120;8.698;2022-08-21T01:02:36;8.03;;;7.10;;
1569;SDS011;778;50.120;8.698;2022-08-21T01:05:08;10.50;;;9.00;;
1569;SDS011;778;50.120;8.698;2022-08-21T01:07:37;10.00;;;6.83;;
1569;SDS011;778;50.120;8.698;2022-08-21T01:10:06;9.20;;;7.83;;
1569;SDS011;778;50.120;8.698;2022-08-21T01:12:49;12.47;;;8.20;;
1569;SDS011;778;50.120;8.698;2022-08-21T01:15:20;8.10;;;7.40;;
1569;SDS011;778;50.120;8.698;2022-08-21T01:17:51;9.30;;;6.93;;
1569;SDS011;778;50.120;8.698;2022-08-21T01:20:20;7.90;;;7.17;;
1569;SDS011;778;50.120;8.698;2022-08-21T01:22:59;8.83;;;7.30;;
1569;SDS011;778;50.120;8.698;2022-08-21T01:25:29;8.33;;;7.53;;
1569;SDS011;778;50.120;8.698;2022-08-21T01:27:59;9.73;;;7.60;;
1569;SDS011;778;50.120;8.698;2022-08-21T01:30:42;9.17;;;7.63;;
1569;SDS011;778;50.120;8.698;2022-08-21T01:33:11;8.07;;;6.83;;
1569;SDS011;778;50.120;8.698;2022-08-21T01:35:39;8.27;;;7.03;;
1569;SDS011;778;50.120;8.698;2022-08-21T01:38:09;9.20;;;7.40;;
1569;SDS011;778;50.120;8.698;2022-08-21T01:40:38;8.10;;;7.30;;
1569;SDS011;778;50.120;8.698;2022-08-21T01:43:07;8.23;;;7.13;;
1569;SDS011;778;50.120;8.698;2022-08-21T01:45:35;8.17;;;6.90;;
1569;SDS011;778;50.120;8.698;2022-08-21T01:48:04;9.30;;;7.03;;
1569;SDS011;778;50.120;8.698;2022-08-21T01:50:33;10.47;;;7.60;;
1569;SDS011;778;50.120;8.698;2022-08-21T01:53:02;7.80;;;7.10;;
1569;SDS011;778;50.120;8.698;2022-08-21T01:55:32;8.10;;;6.70;;
1569;SDS011;778;50.120;8.698;2022-08-21T01:58:01;9.03;;;7.50;;
1569;SDS011;778;50.120;8.698;2022-08-21T02:00:29;9.50;;;7.30;;
1569;SDS011;778;50.120;8.698;2022-08-21T02:02:58;8.10;;;7.40;;
1569;SDS011;778;50.120;8.698;2022-08-21T02:05:27;8.43;;;7.60;;
1569;SDS011;778;50.120;8.698;2022-08-21T02:07:55;9.93;;;7.13;;
1569;SDS011;778;50.120;8.698;2022-08-21T02:10:26;8.03;;;7.23;;
1569;SDS011;778;50.120;8.698;2022-08-21T02:12:59;7.87;;;7.00;;
1569;SDS011;778;50.120;8.698;2022-08-21T02:15:28;10.50;;;7.20;;
1569;SDS011;778;50.120;8.698;2022-08-21T02:17:59;8.17;;;7.37;;
1569;SDS011;778;50.120;8.698;2022-08-21T02:20:30;8.80;;;7.90;;
1569;SDS011;778;50.120;8.698;2022-08-21T02:23:02;9.03;;;7.93;;
1569;SDS011;778;50.120;8.698;2022-08-21T02:25:32;8.93;;;7.80;;
1569;SDS011;778;50.120;8.698;2022-08-21T02:28:04;8.10;;;7.30;;
1569;SDS011;778;50.120;8.698;2022-08-21T02:30:39;9.27;;;7.93;;
1569;SDS011;778;50.120;8.698;2022-08-21T02:33:10;8.80;;;7.50;;
1569;SDS011;778;50.120;8.698;2022-08-21T02:35:40;11.63;;;8.10;;
1569;SDS011;778;50.120;8.698;2022-08-21T02:38:10;9.77;;;7.50;;
1569;SDS011;778;50.120;8.698;2022-08-21T02:40:43;9.83;;;7.10;;
1569;SDS011;778;50.120;8.698;2022-08-21T02:43:18;9.77;;;7.37;;
1569;SDS011;778;50.120;8.698;2022-08-21T02:45:48;12.00;;;8.33;;
1569;SDS011;778;50.120;8.698;2022-08-21T02:48:18;8.20;;;7.43;;
1569;SDS011;778;50.120;8.698;2022-08-21T02:50:52;9.83;;;7.20;;
1569;SDS011;778;50.120;8.698;2022-08-21T02:53:23;9.97;;;7.53;;
1569;SDS011;778;50.120;8.698;2022-08-21T02:55:53;7.97;;;7.17;;
1569;SDS011;778;50.120;8.698;2022-08-21T02:58:29;8.83;;;7.33;;
1569;SDS011;778;50.120;8.698;2022-08-21T03:01:01;10.43;;;7.80;;
1569;SDS011;778;50.120;8.698;2022-08-21T03:03:30;8.20;;;7.17;;
1569;SDS011;778;50.120;8.698;2022-08-21T03:06:02;12.80;;;7.60;;
1569;SDS011;778;50.120;8.698;2022-08-21T03:08:32;8.70;;;7.77;;
1569;SDS011;778;50.120;8.698;2022-08-21T03:11:01;15.50;;;6.90;;
1569;SDS011;778;50.120;8.698;2022-08-21T03:13:34;10.33;;;6.93;;
1569;SDS011;778;50.120;8.698;2022-08-21T03:16:02;7.63;;;6.83;;
1569;SDS011;778;50.120;8.698;2022-08-21T03:18:35;10.60;;;7.63;;
1569;SDS011;778;50.120;8.698;2022-08-21T03:21:05;10.27;;;7.53;;
1569;SDS011;778;50.120;8.698;2022-08-21T03:23:34;11.63;;;8.33;;
1569;SDS011;778;50.120;8.698;2022-08-21T03:26:02;7.83;;;7.00;;
1569;SDS011;778;50.120;8.698;2022-08-21T03:28:34;7.53;;;6.90;;
1569;SDS011;778;50.120;8.698;2022-08-21T03:31:03;8.40;;;7.70;;
1569;SDS011;778;50.120;8.698;2022-08-21T03:33:32;7.70;;;6.90;;
1569;SDS011;778;50.120;8.698;2022-08-21T03:36:01;7.20;;;6.60;;
1569;SDS011;778;50.120;8.698;2022-08-21T03:38:35;9.40;;;7.13;;
1569;SDS011;778;50.120;8.698;2022-08-21T03:41:05;8.73;;;7.50;;
1569;SDS011;778;50.120;8.698;2022-08-21T03:43:35;8.63;;;7.23;;
1569;SDS011;778;50.120;8.698;2022-08-21T03:46:05;8.60;;;6.97;;
1569;SDS011;778;50.120;8.698;2022-08-21T03:48:35;7.60;;;6.73;;
1569;SDS011;778;50.120;8.698;2022-08-21T03:51:04;9.43;;;7.57;;
1569;SDS011;778;50.120;8.698;2022-08-21T03:53:34;8.30;;;7.20;;
1569;SDS011;778;50.120;8.698;2022-08-21T03:56:02;7.93;;;7.00;;
1569;SDS011;778;50.120;8.698;2022-08-21T03:58:32;10.27;;;6.80;;
1569;SDS011;778;50.120;8.698;2022-08-21T04:01:02;8.03;;;7.23;;
1569;SDS011;778;50.120;8.698;2022-08-21T04:03:34;8.13;;;7.00;;
1569;SDS011;778;50.120;8.698;2022-08-21T04:06:03;7.73;;;6.23;;
1569;SDS011;778;50.120;8.698;2022-08-21T04:08:33;7.67;;;6.57;;
1569;SDS011;778;50.120;8.698;2022-08-21T04:11:02;7.43;;;6.73;;
1569;SDS011;778;50.120;8.698;2022-08-21T04:13:32;8.13;;;7.30;;
1569;SDS011;778;50.120;8.698;2022-08-21T04:16:11;10.53;;;7.30;;
1569;SDS011;778;50.120;8.698;2022-08-21T04:18:40;11.57;;;7.60;;
1569;SDS011;778;50.120;8.698;2022-08-21T04:21:10;8.00;;;6.87;;
1569;SDS011;778;50.120;8.698;2022-08-21T04:23:39;8.73;;;7.77;;
1569;SDS011;778;50.120;8.698;2022-08-21T04:26:08;8.70;;;7.47;;
1569;SDS011;778;50.120;8.698;2022-08-21T04:28:36;12.90;;;8.47;;
1569;SDS011;778;50.120;8.698;2022-08-21T04:31:05;7.47;;;6.73;;
1569;SDS011;778;50.120;8.698;2022-08-21T04:33:35;8.53;;;7.70;;
1569;SDS011;778;50.120;8.698;2022-08-21T04:36:04;8.53;;;6.90;;
1569;SDS011;778;50.120;8.698;2022-08-21T04:38:34;9.27;;;8.10;;
1569;SDS011;778;50.120;8.698;2022-08-21T04:41:03;8.40;;;7.60;;
1569;SDS011;778;50.120;8.698;2022-08-21T04:43:32;9.67;;;8.40;;
1569;SDS011;778;50.120;8.698;2022-08-21T04:46:01;7.87;;;6.83;;
1569;SDS011;778;50.120;8.698;2022-08-21T04:48:29;10.70;;;8.00;;
1569;SDS011;778;50.120;8.698;2022-08-21T04:51:01;11.93;;;7.73;;
1569;SDS011;778;50.120;8.698;2022-08-21T04:53:36;8.47;;;7.40;;
1569;SDS011;778;50.120;8.698;2022-08-21T04:56:08;8.47;;;6.93;;
1569;SDS011;778;50.120;8.698;2022-08-21T04:58:42;9.43;;;7.50;;
1569;SDS011;778;50.120;8.698;2022-08-21T05:01:13;8.03;;;7.20;;
1569;SDS011;778;50.120;8.698;2022-08-21T05:03:45;9.60;;;8.70;;
1569;SDS011;778;50.120;8.698;2022-08-21T05:06:18;9.23;;;8.40;;
1569;SDS011;778;50.120;8.698;2022-08-21T05:08:48;10.40;;;9.37;;
1569;SDS011;778;50.120;8.698;2022-08-21T05:11:27;9.70;;;7.37;;
1569;SDS011;778;50.120;8.698;2022-08-21T05:13:57;9.00;;;8.10;;
1569;SDS011;778;50.120;8.698;2022-08-21T05:16:26;8.67;;;7.80;;
1569;SDS011;778;50.120;8.698;2022-08-21T05:19:03;9.43;;;8.43;;
1569;SDS011;778;50.120;8.698;2022-08-21T05:21:33;8.43;;;7.50;;
1569;SDS011;778;50.120;8.698;2022-08-21T05:24:03;10.30;;;8.60;;
1569;SDS011;778;50.120;8.698;2022-08-21T05:26:32;8.57;;;7.77;;
1569;SDS011;778;50.120;8.698;2022-08-21T05:29:11;9.57;;;8.70;;
1569;SDS011;778;50.120;8.698;2022-08-21T05:31:41;9.10;;;8.17;;
1569;SDS011;778;50.120;8.698;2022-08-21T05:34:11;8.07;;;7.43;;
1569;SDS011;778;50.120;8.698;2022-08-21T05:36:43;11.40;;;8.80;;
1569;SDS011;778;50.120;8.698;2022-08-21T05:39:12;10.00;;;9.00;;
1569;SDS011;778;50.120;8.698;2022-08-21T05:41:41;10.87;;;9.97;;
1569;SDS011;778;50.120;8.698;2022-08-21T05:44:09;12.00;;;10.83;;
1569;SDS011;778;50.120;8.698;2022-08-21T05:46:38;10.73;;;9.83;;
1569;SDS011;778;50.120;8.698;2022-08-21T05:49:06;11.30;;;9.23;;
1569;SDS011;778;50.120;8.698;2022-08-21T05:51:35;11.63;;;9.70;;
1569;SDS011;778;50.120;8.698;2022-08-21T05:54:05;11.00;;;9.93;;
1569;SDS011;778;50.120;8.698;2022-08-21T05:56:34;11.27;;;10.00;;
1569;SDS011;778;50.120;8.698;2022-08-21T05:59:02;11.10;;;10.07;;
1569;SDS011;778;50.120;8.698;2022-08-21T06:01:34;11.47;;;9.97;;
1569;SDS011;778;50.120;8.698;2022-08-21T06:04:03;10.57;;;9.47;;
1569;SDS011;778;50.120;8.698;2022-08-21T06:06:32;11.83;;;10.80;;
1569;SDS011;778;50.120;8.698;2022-08-21T06:09:01;10.90;;;9.67;;
1569;SDS011;778;50.120;8.698;2022-08-21T06:11:32;11.10;;;9.97;;
1569;SDS011;778;50.120;8.698;2022-08-21T06:14:01;11.53;;;10.47;;
1569;SDS011;778;50.120;8.698;2022-08-21T06:16:32;11.77;;;10.67;;
1569;SDS011;778;50.120;8.698;2022-08-21T06:19:01;12.80;;;11.00;;
1569;SDS011;778;50.120;8.698;2022-08-21T06:21:29;11.53;;;10.53;;
1569;SDS011;778;50.120;8.698;2022-08-21T06:23:58;10.93;;;9.83;;
1569;SDS011;778;50.120;8.698;2022-08-21T06:26:26;12.00;;;10.80;;
1569;SDS011;778;50.120;8.698;2022-08-21T06:28:57;13.57;;;12.20;;
1569;SDS011;778;50.120;8.698;2022-08-21T06:31:26;10.80;;;9.70;;
1569;SDS011;778;50.120;8.698;2022-08-21T06:33:56;11.37;;;10.10;;
1569;SDS011;778;50.120;8.698;2022-08-21T06:36:24;10.50;;;9.27;;
1569;SDS011;778;50.120;8.698;2022-08-21T06:38:53;10.43;;;9.43;;
1569;SDS011;778;50.120;8.698;2022-08-21T06:41:23;9.60;;;8.70;;
1569;SDS011;778;50.120;8.698;2022-08-21T06:43:52;12.67;;;11.47;;
1569;SDS011;778;50.120;8.698;2022-08-21T06:46:23;9.80;;;8.80;;
1569;SDS011;778;50.120;8.698;2022-08-21T06:48:54;9.77;;;8.77;;
1569;SDS011;778;50.120;8.698;2022-08-21T06:51:24;10.30;;;9.40;;
1569;SDS011;778;50.120;8.698;2022-08-21T06:53:52;10.07;;;9.17;;
1569;SDS011;778;50.120;8.698;2022-08-21T06:56:24;12.70;;;9.90;;
1569;SDS011;778;50.120;8.698;2022-08-21T06:58:53;11.00;;;9.80;;
1569;SDS011;778;50.120;8.698;2022-08-21T07:01:22;15.03;;;9.13;;
1569;SDS011;778;50.120;8.698;2022-08-21T07:03:54;11.20;;;10.10;;
1569;SDS011;778;50.120;8.698;2022-08-21T07:06:22;10.60;;;9.80;;
1569;SDS011;778;50.120;8.698;2022-08-21T07:08:51;10.90;;;9.57;;
1569;SDS011;778;50.120;8.698;2022-08-21T07:11:24;10.40;;;9.40;;
1569;SDS011;778;50.120;8.698;2022-08-21T07:13:53;10.67;;;9.57;;
1569;SDS011;778;50.120;8.698;2022-08-21T07:16:23;11.63;;;10.33;;
1569;SDS011;778;50.120;8.698;2022-08-21T07:18:52;10.60;;;9.60;;
1569;SDS011;778;50.120;8.698;2022-08-21T07:21:21;9.87;;;8.97;;
1569;SDS011;778;50.120;8.698;2022-08-21T07:23:51;10.97;;;9.87;;
1569;SDS011;778;50.120;8.698;2022-08-21T07:26:21;10.23;;;9.23;;
1569;SDS011;778;50.120;8.698;2022-08-21T07:28:50;10.57;;;9.53;;
1569;SDS011;778;50.120;8.698;2022-08-21T07:31:20;10.33;;;9.43;;
1569;SDS011;778;50.120;8.698;2022-08-21T07:33:52;10.20;;;9.17;;
1569;SDS011;778;50.120;8.698;2022-08-21T07:36:21;10.20;;;9.10;;
1569;SDS011;778;50.120;8.698;2022-08-21T07:38:50;9.50;;;8.60;;
1569;SDS011;778;50.120;8.698;2022-08-21T07:41:20;9.13;;;8.13;;
1569;SDS011;778;50.120;8.698;2022-08-21T07:43:50;11.87;;;10.80;;
1569;SDS011;778;50.120;8.698;2022-08-21T07:46:19;9.43;;;8.33;;
1569;SDS011;778;50.120;8.698;2022-08-21T07:48:48;11.10;;;8.87;;
1569;SDS011;778;50.120;8.698;2022-08-21T07:51:20;9.37;;;8.47;;
1569;SDS011;778;50.120;8.698;2022-08-21T07:53:54;11.30;;;10.10;;
1569;SDS011;778;50.120;8.698;2022-08-21T07:56:25;11.43;;;9.50;;
1569;SDS011;778;50.120;8.698;2022-08-21T07:58:54;9.77;;;8.87;;
1569;SDS011;778;50.120;8.698;2022-08-21T08:01:23;10.30;;;9.40;;
1569;SDS011;778;50.120;8.698;2022-08-21T08:03:52;10.63;;;9.63;;
1569;SDS011;778;50.120;8.698;2022-08-21T08:06:22;11.60;;;8.33;;
1569;SDS011;778;50.120;8.698;2022-08-21T08:08:52;8.80;;;8.07;;
1569;SDS011;778;50.120;8.698;2022-08-21T08:11:20;11.07;;;8.93;;
1569;SDS011;778;50.120;8.698;2022-08-21T08:13:50;10.30;;;8.70;;
1569;SDS011;778;50.120;8.698;2022-08-21T08:16:19;10.20;;;8.90;;
1569;SDS011;778;50.120;8.698;2022-08-21T08:18:48;10.60;;;9.70;;
1569;SDS011;778;50.120;8.698;2022-08-21T08:21:17;12.33;;;10.57;;
1569;SDS011;778;50.120;8.698;2022-08-21T08:23:48;10.13;;;9.13;;
1569;SDS011;778;50.120;8.698;2022-08-21T08:26:17;10.40;;;9.40;;
1569;SDS011;778;50.120;8.698;2022-08-21T08:28:45;9.33;;;8.40;;
1569;SDS011;778;50.120;8.698;2022-08-21T08:31:14;10.10;;;9.10;;
1569;SDS011;778;50.120;8.698;2022-08-21T08:33:43;9.27;;;8.33;;
1569;SDS011;778;50.120;8.698;2022-08-21T08:36:15;9.97;;;8.53;;
1569;SDS011;778;50.120;8.698;2022-08-21T08:38:45;9.30;;;8.43;;
1569;SDS011;778;50.120;8.698;2022-08-21T08:41:17;11.57;;;9.43;;
1569;SDS011;778;50.120;8.698;2022-08-21T08:43:57;11.43;;;10.37;;
1569;SDS011;778;50.120;8.698;2022-08-21T08:46:31;10.37;;;9.10;;
1569;SDS011;778;50.120;8.698;2022-08-21T08:49:06;11.87;;;10.67;;
1569;SDS011;778;50.120;8.698;2022-08-21T08:51:48;9.43;;;8.40;;
1569;SDS011;778;50.120;8.698;2022-08-21T08:54:27;10.90;;;9.77;;
1569;SDS011;778;50.120;8.698;2022-08-21T08:57:02;9.73;;;8.80;;
1569;SDS011;778;50.120;8.698;2022-08-21T08:59:38;10.60;;;9.50;;
1569;SDS011;778;50.120;8.698;2022-08-21T09:02:11;9.17;;;8.37;;
1569;SDS011;778;50.120;8.698;2022-08-21T09:04:42;10.50;;;8.30;;
1569;SDS011;778;50.120;8.698;2022-08-21T09:07:16;7.37;;;6.67;;
1569;SDS011;778;50.120;8.698;2022-08-21T09:10:02;9.00;;;7.17;;
1569;SDS011;778;50.120;8.698;2022-08-21T09:12:45;9.27;;;7.07;;
1569;SDS011;778;50.120;8.698;2022-08-21T09:15:23;8.00;;;7.00;;
1569;SDS011;778;50.120;8.698;2022-08-21T09:18:04;8.37;;;7.07;;
1569;SDS011;778;50.120;8.698;2022-08-21T09:20:51;10.90;;;6.13;;
1569;SDS011;778;50.120;8.698;2022-08-21T09:23:33;7.80;;;6.00;;
1569;SDS011;778;50.120;8.698;2022-08-21T09:26:13;7.17;;;5.23;;
1569;SDS011;778;50.120;8.698;2022-08-21T09:28:45;8.47;;;4.60;;
1569;SDS011;778;50.120;8.698;2022-08-21T09:31:25;7.00;;;5.47;;
1569;SDS011;778;50.120;8.698;2022-08-21T09:33:59;6.40;;;5.80;;
1569;SDS011;778;50.120;8.698;2022-08-21T09:36:35;11.13;;;5.43;;
1569;SDS011;778;50.120;8.698;2022-08-21T09:39:07;6.87;;;5.60;;
1569;SDS011;778;50.120;8.698;2022-08-21T09:41:37;7.90;;;5.20;;
1569;SDS011;778;50.120;8.698;2022-08-21T09:44:08;8.60;;;5.17;;
1569;SDS011;778;50.120;8.698;2022-08-21T09:46:36;7.67;;;5.60;;
1569;SDS011;778;50.120;8.698;2022-08-21T09:49:05;4.87;;;4.43;;
1569;SDS011;778;50.120;8.698;2022-08-21T09:51:49;6.50;;;4.80;;
1569;SDS011;778;50.120;8.698;2022-08-21T09:54:20;5.27;;;4.70;;
1569;SDS011;778;50.120;8.698;2022-08-21T09:56:56;5.47;;;4.50;;
1569;SDS011;778;50.120;8.698;2022-08-21T09:59:51;6.20;;;4.53;;
1569;SDS011;778;50.120;8.698;2022-08-21T10:02:23;5.07;;;4.57;;
1569;SDS011;778;50.120;8.698;2022-08-21T10:04:56;6.40;;;5.00;;
1569;SDS011;778;50.120;8.698;2022-08-21T10:07:30;7.10;;;4.63;;
1569;SDS011;778;50.120;8.698;2022-08-21T10:10:00;5.57;;;4.97;;
1569;SDS011;778;50.120;8.698;2022-08-21T10:12:38;9.17;;;5.37;;
1569;SDS011;778;50.120;8.698;2022-08-21T10:15:15;6.77;;;4.90;;
1569;SDS011;778;50.120;8.698;2022-08-21T10:17:52;5.90;;;4.83;;
1569;SDS011;778;50.120;8.698;2022-08-21T10:20:30;5.07;;;4.67;;
1569;SDS011;778;50.120;8.698;2022-08-21T10:23:10;5.97;;;4.50;;
1569;SDS011;778;50.120;8.698;2022-08-21T10:25:55;8.90;;;5.17;;
1569;SDS011;778;50.120;8.698;2022-08-21T10:28:40;7.20;;;4.27;;
1569;SDS011;778;50.120;8.698;2022-08-21T10:31:24;5.27;;;4.07;;
1569;SDS011;778;50.120;8.698;2022-08-21T10:34:04;5.37;;;4.20;;
1569;SDS011;778;50.120;8.698;2022-08-21T10:36:51;8.87;;;4.87;;
1569;SDS011;778;50.120;8.698;2022-08-21T10:39:36;5.87;;;3.90;;
1569;SDS011;778;50.120;8.698;2022-08-21T10:42:24;5.80;;;4.53;;
1569;SDS011;778;50.120;8.698;2022-08-21T10:45:08;6.30;;;4.40;;
1569;SDS011;778;50.120;8.698;2022-08-21T10:47:57;7.37;;;4.57;;
1569;SDS011;778;50.120;8.698;2022-08-21T10:50:33;6.77;;;4.33;;
1569;SDS011;778;50.120;8.698;2022-08-21T10:53:12;5.97;;;4.37;;
1569;SDS011;778;50.120;8.698;2022-08-21T10:56:05;6.77;;;4.70;;
1569;SDS011;778;50.120;8.698;2022-08-21T11:01:50;6.00;;;4.67;;
1569;SDS011;778;50.120;8.698;2022-08-21T11:04:27;7.33;;;4.60;;
1569;SDS011;778;50.120;8.698;2022-08-21T11:07:16;5.77;;;4.40;;
1569;SDS011;778;50.120;8.698;2022-08-21T11:09:57;5.93;;;4.10;;
1569;SDS011;778;50.120;8.698;2022-08-21T11:12:34;5.73;;;4.00;;
1569;SDS011;778;50.120;8.698;2022-08-21T11:15:14;5.57;;;3.90;;
1569;SDS011;778;50.120;8.698;2022-08-21T11:17:58;6.40;;;4.10;;
1569;SDS011;778;50.120;8.698;2022-08-21T11:20:36;8.50;;;4.60;;
1569;SDS011;778;50.120;8.698;2022-08-21T11:23:11;6.20;;;4.23;;
1569;SDS011;778;50.120;8.698;2022-08-21T11:25:47;7.17;;;3.80;;
1569;SDS011;778;50.120;8.698;2022-08-21T11:28:22;6.63;;;3.70;;
1569;SDS011;778;50.120;8.698;2022-08-21T11:30:57;6.53;;;4.30;;
1569;SDS011;778;50.120;8.698;2022-08-21T11:33:46;6.87;;;4.20;;
1569;SDS011;778;50.120;8.698;2022-08-21T11:36:31;5.33;;;4.03;;
1569;SDS011;778;50.120;8.698;2022-08-21T11:39:17;4.70;;;4.20;;
1569;SDS011;778;50.120;8.698;2022-08-21T11:41:54;4.23;;;3.50;;
1569;SDS011;778;50.120;8.698;2022-08-21T11:44:38;5.40;;;3.60;;
1569;SDS011;778;50.120;8.698;2022-08-21T11:47:19;8.20;;;4.20;;
1569;SDS011;778;50.120;8.698;2022-08-21T11:50:02;3.63;;;3.20;;
1569;SDS011;778;50.120;8.698;2022-08-21T11:53:04;6.67;;;3.70;;
1569;SDS011;778;50.120;8.698;2022-08-21T11:55:39;6.50;;;4.27;;
1569;SDS011;778;50.120;8.698;2022-08-21T11:58:14;6.63;;;4.13;;
1569;SDS011;778;50.120;8.698;2022-08-21T12:00:49;7.00;;;4.00;;
1569;SDS011;778;50.120;8.698;2022-08-21T12:03:25;6.87;;;4.53;;
1569;SDS011;778;50.120;8.698;2022-08-21T12:05:57;8.37;;;4.10;;
1569;SDS011;778;50.120;8.698;2022-08-21T12:08:30;5.90;;;4.13;;
1569;SDS011;778;50.120;8.698;2022-08-21T12:11:03;5.67;;;3.17;;
1569;SDS011;778;50.120;8.698;2022-08-21T12:13:35;5.33;;;4.40;;
1569;SDS011;778;50.120;8.698;2022-08-21T12:16:09;8.40;;;3.70;;
1569;SDS011;778;50.120;8.698;2022-08-21T12:18:40;4.87;;;3.77;;
1569;SDS011;778;50.120;8.698;2022-08-21T12:21:17;3.90;;;3.50;;
1569;SDS011;778;50.120;8.698;2022-08-21T12:24:04;5.53;;;3.97;;
1569;SDS011;778;50.120;8.698;2022-08-21T12:26:48;4.97;;;3.80;;
1569;SDS011;778;50.120;8.698;2022-08-21T12:29:23;6.00;;;3.77;;
1569;SDS011;778;50.120;8.698;2022-08-21T12:31:56;4.00;;;3.40;;
1569;SDS011;778;50.120;8.698;2022-08-21T12:34:33;5.50;;;3.50;;
1569;SDS011;778;50.120;8.698;2022-08-21T12:37:06;6.03;;;3.20;;
1569;SDS011;778;50.120;8.698;2022-08-21T12:39:46;5.63;;;3.60;;
1569;SDS011;778;50.120;8.698;2022-08-21T12:42:19;6.17;;;4.10;;
1569;SDS011;778;50.120;8.698;2022-08-21T12:44:53;5.40;;;3.77;;
1569;SDS011;778;50.120;8.698;2022-08-21T12:47:27;5.73;;;3.70;;
1569;SDS011;778;50.120;8.698;2022-08-21T12:50:01;4.13;;;3.73;;
1569;SDS011;778;50.120;8.698;2022-08-21T12:52:34;4.90;;;3.40;;
1569;SDS011;778;50.120;8.698;2022-08-21T12:55:10;6.27;;;3.30;;
1569;SDS011;778;50.120;8.698;2022-08-21T12:57:42;4.43;;;3.50;;
1569;SDS011;778;50.120;8.698;2022-08-21T13:00:11;6.60;;;3.53;;
1569;SDS011;778;50.120;8.698;2022-08-21T13:02:43;9.27;;;4.30;;
1569;SDS011;778;50.120;8.698;2022-08-21T13:05:19;6.27;;;4.00;;
1569;SDS011;778;50.120;8.698;2022-08-21T13:07:56;5.17;;;2.97;;
1569;SDS011;778;50.120;8.698;2022-08-21T13:10:27;6.30;;;3.50;;
1569;SDS011;778;50.120;8.698;2022-08-21T13:13:00;7.03;;;3.70;;
1569;SDS011;778;50.120;8.698;2022-08-21T13:15:39;4.03;;;3.43;;
1569;SDS011;778;50.120;8.698;2022-08-21T13:18:19;3.93;;;3.27;;
1569;SDS011;778;50.120;8.698;2022-08-21T13:20:51;4.57;;;3.30;;
1569;SDS011;778;50.120;8.698;2022-08-21T13:23:31;4.30;;;3.43;;
1569;SDS011;778;50.120;8.698;2022-08-21T13:26:01;5.43;;;3.30;;
1569;SDS011;778;50.120;8.698;2022-08-21T13:28:44;5.43;;;3.13;;
1569;SDS011;778;50.120;8.698;2022-08-21T13:31:16;5.40;;;3.27;;
1569;SDS011;778;50.120;8.698;2022-08-21T13:33:52;6.50;;;3.20;;
1569;SDS011;778;50.120;8.698;2022-08-21T13:36:24;6.57;;;3.30;;
1569;SDS011;778;50.120;8.698;2022-08-21T13:38:57;5.80;;;4.03;;
1569;SDS011;778;50.120;8.698;2022-08-21T13:41:27;5.23;;;3.10;;
1569;SDS011;778;50.120;8.698;2022-08-21T13:44:01;4.30;;;3.20;;
1569;SDS011;778;50.120;8.698;2022-08-21T13:46:33;5.60;;;4.17;;
1569;SDS011;778;50.120;8.698;2022-08-21T13:49:04;5.70;;;3.23;;
1569;SDS011;778;50.120;8.698;2022-08-21T13:51:34;4.93;;;3.07;;
1569;SDS011;778;50.120;8.698;2022-08-21T13:54:13;4.00;;;3.27;;
1569;SDS011;778;50.120;8.698;2022-08-21T13:56:50;5.03;;;3.23;;
1569;SDS011;778;50.120;8.698;2022-08-21T13:59:25;3.00;;;2.70;;
1569;SDS011;778;50.120;8.698;2022-08-21T14:01:58;4.23;;;2.80;;
1569;SDS011;778;50.120;8.698;2022-08-21T14:04:32;3.83;;;3.33;;
1569;SDS011;778;50.120;8.698;2022-08-21T14:07:14;4.60;;;3.47;;
1569;SDS011;778;50.120;8.698;2022-08-21T14:09:46;5.20;;;3.70;;
1569;SDS011;778;50.120;8.698;2022-08-21T14:12:17;5.70;;;3.70;;
1569;SDS011;778;50.120;8.698;2022-08-21T14:14:54;3.47;;;3.17;;
1569;SDS011;778;50.120;8.698;2022-08-21T14:17:28;4.90;;;3.10;;
1569;SDS011;778;50.120;8.698;2022-08-21T14:20:03;5.80;;;3.60;;
1569;SDS011;778;50.120;8.698;2022-08-21T14:22:36;5.27;;;3.10;;
1569;SDS011;778;50.120;8.698;2022-08-21T14:25:08;4.63;;;3.23;;
1569;SDS011;778;50.120;8.698;2022-08-21T14:27:44;5.23;;;3.60;;
1569;SDS011;778;50.120;8.698;2022-08-21T14:30:21;5.67;;;3.70;;
1569;SDS011;778;50.120;8.698;2022-08-21T14:32:55;7.93;;;3.97;;
1569;SDS011;778;50.120;8.698;2022-08-21T14:35:24;5.33;;;3.27;;
1569;SDS011;778;50.120;8.698;2022-08-21T14:37:55;3.90;;;3.07;;
1569;SDS011;778;50.120;8.698;2022-08-21T14:40:24;8.30;;;3.70;;
1569;SDS011;778;50.120;8.698;2022-08-21T14:42:54;6.30;;;4.00;;
1569;SDS011;778;50.120;8.698;2022-08-21T14:45:25;4.17;;;3.10;;
1569;SDS011;778;50.120;8.698;2022-08-21T14:47:57;5.30;;;3.47;;
1569;SDS011;778;50.120;8.698;2022-08-21T14:50:26;4.70;;;3.60;;
1569;SDS011;778;50.120;8.698;2022-08-21T14:52:54;7.57;;;3.87;;
1569;SDS011;778;50.120;8.698;2022-08-21T14:55:23;5.20;;;2.97;;
1569;SDS011;778;50.120;8.698;2022-08-21T14:57:52;6.27;;;3.70;;
1569;SDS011;778;50.120;8.698;2022-08-21T15:00:24;3.30;;;3.00;;
1569;SDS011;778;50.120;8.698;2022-08-21T15:03:01;6.30;;;3.60;;
1569;SDS011;778;50.120;8.698;2022-08-21T15:05:30;3.23;;;2.70;;
1569;SDS011;778;50.120;8.698;2022-08-21T15:07:59;4.40;;;3.03;;
1569;SDS011;778;50.120;8.698;2022-08-21T15:10:28;4.07;;;2.97;;
1569;SDS011;778;50.120;8.698;2022-08-21T15:12:59;4.87;;;2.90;;
1569;SDS011;778;50.120;8.698;2022-08-21T15:15:29;4.50;;;3.37;;
1569;SDS011;778;50.120;8.698;2022-08-21T15:18:02;5.50;;;3.00;;
1569;SDS011;778;50.120;8.698;2022-08-21T15:20:30;3.23;;;2.73;;
1569;SDS011;778;50.120;8.698;2022-08-21T15:22:59;6.53;;;3.47;;
1569;SDS011;778;50.120;8.698;2022-08-21T15:25:27;3.90;;;3.33;;
1569;SDS011;778;50.120;8.698;2022-08-21T15:27:56;4.27;;;2.80;;
1569;SDS011;778;50.120;8.698;2022-08-21T15:30:27;5.47;;;2.97;;
1569;SDS011;778;50.120;8.698;2022-08-21T15:32:57;5.20;;;3.23;;
1569;SDS011;778;50.120;8.698;2022-08-21T15:35:26;4.37;;;2.80;;
1569;SDS011;778;50.120;8.698;2022-08-21T15:37:54;4.33;;;2.83;;
1569;SDS011;778;50.120;8.698;2022-08-21T15:40:23;3.03;;;2.73;;
1569;SDS011;778;50.120;8.698;2022-08-21T15:42:57;5.90;;;3.13;;
1569;SDS011;778;50.120;8.698;2022-08-21T15:45:29;6.50;;;2.87;;
1569;SDS011;778;50.120;8.698;2022-08-21T15:47:59;5.20;;;3.00;;
1569;SDS011;778;50.120;8.698;2022-08-21T15:50:28;4.57;;;3.73;;
1569;SDS011;778;50.120;8.698;2022-08-21T15:52:58;2.60;;;2.40;;
1569;SDS011;778;50.120;8.698;2022-08-21T15:55:26;4.40;;;3.10;;
1569;SDS011;778;50.120;8.698;2022-08-21T15:57:55;4.30;;;3.13;;
1569;SDS011;778;50.120;8.698;2022-08-21T16:00:29;3.83;;;2.90;;
1569;SDS011;778;50.120;8.698;2022-08-21T16:03:03;5.87;;;3.27;;